Terminal Aerodrome Forecast
Issued by NWS Memphis, TN

Home | Current Version | Previous Version | Text Only | Print | Product List | Glossary On
Versions: 1 2 3 4 5 6 7 8 9 10 11 12 13 14 15 16 17 18
821
FTUS44 KMEG 011440 AAA
TAFMKL
TAF AMD
KMKL 011440Z 0115/0212 22005KT P6SM BKN011
      TEMPO 0115/0117 SCT011
     FM011700 26007KT P6SM SCT035 BKN200
     FM012200 27005KT P6SM BKN035 OVC150
     FM020800 VRB03KT P6SM VCSH BKN035 OVC070=

USA.gov is the U.S. government's official web portal to all federal, state and local government web resources and services.